Pie Town, New Mexico
Current Conditions -  °F | °C
As of 10:16 AM on Saturday 25 Oct 2014 (Local Time) from KGNT Reporting Station
Clear Clear  
Wind Chill: 54°   Ceiling: Unl
Heat Index: 54°   Visibility: 10mi
Dew Point: 27°   Wind: 5mph
Humidity: 35%   Direction: 360°N
Pressure: 30.42"   Gusts: NA
Location:  34.3°N, 108.15°W
Report Text: KGNT 251616Z AUTO 36004KT 10SM CLR 12/M03 A3042 RMK AO2
Loading
Personal Weather Stations






























Interactive Weather Map
Tropical Storm Tracking
New forecast layout! Learn more

10-Day Weather Forecast

Advertisements
Track Severe Weather on mobile